createdAt,value
2022-09-12T00:01:49.730Z,2.80
2022-09-12T00:04:16.551Z,2.20
2022-09-12T00:06:43.358Z,2.58
2022-09-12T00:09:13.164Z,3.10
2022-09-12T00:11:42.326Z,3.10
2022-09-12T00:14:10.750Z,2.30
2022-09-12T00:16:37.824Z,2.20
2022-09-12T00:19:05.896Z,2.17
2022-09-12T00:21:34.288Z,1.73
2022-09-12T00:24:01.364Z,1.90
2022-09-12T00:26:28.121Z,1.90
2022-09-12T00:28:54.787Z,2.40
2022-09-12T00:31:26.482Z,2.30
2022-09-12T00:33:56.459Z,2.40
2022-09-12T00:36:25.119Z,2.40
2022-09-12T00:38:52.589Z,2.30
2022-09-12T00:41:26.090Z,2.10
2022-09-12T00:43:58.463Z,2.22
2022-09-12T00:46:37.500Z,2.22
2022-09-12T00:49:04.211Z,2.58
2022-09-12T00:51:33.755Z,2.30
2022-09-12T00:54:05.744Z,2.60
2022-09-12T00:56:33.095Z,2.38
2022-09-12T00:59:12.719Z,2.45
2022-09-12T01:01:42.077Z,2.65
2022-09-12T01:04:10.976Z,2.47
2022-09-12T01:06:41.604Z,11.35
2022-09-12T01:09:09.558Z,3.10
2022-09-12T01:11:38.869Z,3.08
2022-09-12T01:14:06.358Z,2.78
2022-09-12T01:16:36.293Z,3.10
2022-09-12T01:19:25.988Z,2.33
2022-09-12T01:22:11.074Z,2.30
2022-09-12T01:25:01.153Z,2.30
2022-09-12T01:27:46.513Z,2.20
2022-09-12T01:30:31.289Z,2.50
2022-09-12T01:33:21.366Z,3.03
2022-09-12T01:36:16.996Z,2.20
2022-09-12T01:38:56.612Z,2.35
2022-09-12T01:41:32.154Z,2.38
2022-09-12T01:44:02.203Z,2.37
2022-09-12T01:47:02.594Z,2.90
2022-09-12T01:49:41.298Z,2.80
2022-09-12T01:52:23.171Z,3.05
2022-09-12T01:55:13.867Z,2.80
2022-09-12T01:57:52.836Z,2.60
2022-09-12T02:00:19.921Z,3.30
2022-09-12T02:02:57.411Z,3.28
2022-09-12T02:05:31.690Z,2.78
2022-09-12T02:08:38.946Z,2.80
2022-09-12T02:11:11.135Z,2.87
2022-09-12T02:13:55.704Z,2.80
2022-09-12T02:16:30.413Z,3.30
2022-09-12T02:19:15.770Z,2.97
2022-09-12T02:21:47.539Z,3.10
2022-09-12T02:24:16.005Z,2.87
2022-09-12T02:26:54.963Z,2.78
2022-09-12T02:29:21.699Z,2.58
2022-09-12T02:31:51.595Z,3.28
2022-09-12T02:34:40.128Z,3.05
2022-09-12T02:37:22.090Z,2.70
2022-09-12T02:39:48.862Z,2.92
2022-09-12T02:42:15.700Z,2.63
2022-09-12T02:44:42.778Z,2.80
2022-09-12T02:47:16.098Z,3.17
2022-09-12T02:49:42.947Z,2.63
2022-09-12T02:52:09.987Z,2.78
2022-09-12T02:54:38.207Z,2.72
2022-09-12T02:57:22.342Z,2.72
2022-09-12T02:59:53.531Z,3.08
2022-09-12T03:02:39.768Z,2.80
2022-09-12T03:05:33.784Z,2.90
2022-09-12T03:08:09.160Z,3.10
2022-09-12T03:10:41.909Z,2.58
2022-09-12T03:13:27.011Z,2.88
2022-09-12T03:16:16.834Z,2.70
2022-09-12T03:18:46.655Z,2.70
2022-09-12T03:21:31.198Z,3.10
2022-09-12T03:24:07.021Z,2.88
2022-09-12T03:26:42.829Z,3.25
2022-09-12T03:29:11.844Z,3.77
2022-09-12T03:31:52.379Z,3.22
2022-09-12T03:34:20.088Z,3.78
2022-09-12T03:36:46.979Z,3.72
2022-09-12T03:39:13.793Z,3.20
2022-09-12T03:41:40.706Z,3.50
2022-09-12T03:44:07.844Z,3.38
2022-09-12T03:46:35.296Z,3.28
2022-09-12T03:49:02.032Z,3.40
2022-09-12T03:51:28.961Z,3.67
2022-09-12T03:53:55.809Z,3.20
2022-09-12T03:56:22.519Z,2.97
2022-09-12T03:58:49.241Z,3.13
2022-09-12T04:01:18.105Z,3.08
2022-09-12T04:03:47.149Z,3.38
2022-09-12T04:06:15.815Z,3.13
2022-09-12T04:08:43.726Z,3.47
2022-09-12T04:11:13.102Z,3.13
2022-09-12T04:13:41.127Z,3.10
2022-09-12T04:16:09.232Z,3.60
2022-09-12T04:18:36.691Z,3.47
2022-09-12T04:21:07.547Z,3.55
2022-09-12T04:23:34.919Z,3.35
2022-09-12T04:26:03.366Z,4.18
2022-09-12T04:28:30.207Z,4.47
2022-09-12T04:31:06.099Z,4.27
2022-09-12T04:33:33.792Z,4.97
2022-09-12T04:36:06.329Z,4.70
2022-09-12T04:38:34.105Z,4.00
2022-09-12T04:41:01.145Z,4.35
2022-09-12T04:43:28.133Z,3.90
2022-09-12T04:45:55.011Z,3.95
2022-09-12T04:48:21.758Z,3.45
2022-09-12T04:50:48.496Z,4.00
2022-09-12T04:53:15.266Z,3.80
2022-09-12T04:55:41.999Z,3.13
2022-09-12T04:58:08.724Z,3.75
2022-09-12T05:00:35.440Z,3.42
2022-09-12T05:03:02.317Z,3.47
2022-09-12T05:05:29.015Z,3.75
2022-09-12T05:07:55.792Z,3.27
2022-09-12T05:10:23.844Z,3.97
2022-09-12T05:12:50.701Z,4.40
2022-09-12T05:15:18.019Z,4.20
2022-09-12T05:17:44.825Z,4.82
2022-09-12T05:20:12.871Z,4.80
2022-09-12T05:22:39.752Z,4.82
2022-09-12T05:25:07.151Z,4.45
2022-09-12T05:27:34.344Z,5.97
2022-09-12T05:30:01.177Z,5.30
2022-09-12T05:32:31.749Z,5.07
2022-09-12T05:34:58.996Z,4.78
2022-09-12T05:37:25.889Z,4.50
2022-09-12T05:39:52.948Z,4.53
2022-09-12T05:42:19.729Z,4.60
2022-09-12T05:44:46.628Z,4.20
2022-09-12T05:47:13.300Z,3.47
2022-09-12T05:49:40.086Z,3.78
2022-09-12T05:52:07.030Z,3.78
2022-09-12T05:54:34.405Z,3.60
2022-09-12T05:57:01.153Z,3.67
2022-09-12T05:59:28.541Z,3.95
2022-09-12T06:01:55.536Z,4.07
2022-09-12T06:04:23.759Z,4.40
2022-09-12T06:06:51.892Z,4.47
2022-09-12T06:09:18.836Z,3.97
2022-09-12T06:11:46.517Z,3.90
2022-09-12T06:14:15.462Z,4.22
2022-09-12T06:16:42.752Z,3.83
2022-09-12T06:19:18.203Z,5.40
2022-09-12T06:21:45.668Z,4.10
2022-09-12T06:24:12.511Z,3.78
2022-09-12T06:26:39.478Z,3.78
2022-09-12T06:29:06.311Z,4.35
2022-09-12T06:31:37.486Z,4.10
2022-09-12T06:34:06.727Z,3.60
2022-09-12T06:36:37.768Z,3.83
2022-09-12T06:39:07.818Z,4.30
2022-09-12T06:41:34.921Z,4.22
2022-09-12T06:44:02.097Z,5.75
2022-09-12T06:46:29.513Z,5.00
2022-09-12T06:48:57.467Z,4.93
2022-09-12T06:51:24.573Z,6.60
2022-09-12T06:53:52.352Z,6.28
2022-09-12T06:56:21.331Z,4.38
2022-09-12T06:58:50.073Z,4.27
2022-09-12T07:01:19.530Z,3.88
2022-09-12T07:03:55.089Z,4.40
2022-09-12T07:06:31.532Z,5.57
2022-09-12T07:08:59.696Z,4.80
2022-09-12T07:11:29.106Z,4.53
2022-09-12T07:13:56.754Z,3.70
2022-09-12T07:16:24.033Z,4.13
2022-09-12T07:18:57.207Z,3.97
2022-09-12T07:21:24.024Z,4.00
2022-09-12T07:23:52.050Z,3.73
2022-09-12T07:26:19.275Z,3.65
2022-09-12T07:28:45.967Z,3.75
2022-09-12T07:31:18.393Z,3.60
2022-09-12T07:33:45.327Z,3.95
2022-09-12T07:36:14.346Z,3.67
2022-09-12T07:38:41.729Z,3.67
2022-09-12T07:41:17.570Z,3.05
2022-09-12T07:43:44.830Z,3.20
2022-09-12T07:46:12.544Z,3.17
2022-09-12T07:48:39.460Z,3.03
2022-09-12T07:51:08.311Z,3.92
2022-09-12T07:53:41.750Z,3.80
2022-09-12T07:56:13.058Z,3.75
2022-09-12T07:58:41.928Z,3.47
2022-09-12T08:01:12.941Z,3.57
2022-09-12T08:03:44.655Z,3.40
2022-09-12T08:06:14.654Z,3.60
2022-09-12T08:08:42.418Z,3.72
2022-09-12T08:11:12.378Z,3.65
2022-09-12T08:13:40.841Z,4.00
2022-09-12T08:16:18.741Z,3.50
2022-09-12T08:18:45.805Z,3.85
2022-09-12T08:21:15.632Z,4.20
2022-09-12T08:23:43.483Z,4.07
2022-09-12T08:26:11.799Z,4.00
2022-09-12T08:28:42.098Z,4.20
2022-09-12T08:31:12.304Z,3.60
2022-09-12T08:33:39.554Z,3.60
2022-09-12T08:36:12.302Z,4.45
2022-09-12T08:38:41.566Z,4.40
2022-09-12T08:41:34.819Z,3.67
2022-09-12T08:44:26.428Z,3.83
2022-09-12T08:47:14.780Z,4.35
2022-09-12T08:49:53.259Z,4.00
2022-09-12T08:52:44.279Z,4.10
2022-09-12T08:55:26.550Z,4.10
2022-09-12T08:57:54.635Z,3.92
2022-09-12T09:00:21.884Z,4.70
2022-09-12T09:02:54.376Z,4.75
2022-09-12T09:05:43.770Z,4.00
2022-09-12T09:08:22.829Z,4.70
2022-09-12T09:11:13.798Z,4.28
2022-09-12T09:14:05.555Z,4.25
2022-09-12T09:16:38.291Z,4.10
2022-09-12T09:19:12.769Z,4.53
2022-09-12T09:21:51.645Z,4.68
2022-09-12T09:24:24.838Z,4.97
2022-09-12T09:27:41.292Z,4.15
2022-09-12T09:30:15.399Z,4.72
2022-09-12T09:32:42.978Z,4.43
2022-09-12T09:35:43.591Z,4.55
2022-09-12T09:38:40.234Z,5.55
2022-09-12T09:41:47.697Z,4.40
2022-09-12T09:44:14.441Z,4.70
2022-09-12T09:46:41.345Z,4.70
2022-09-12T09:49:14.439Z,4.30
2022-09-12T09:51:42.339Z,4.43
2022-09-12T09:54:20.271Z,4.30
2022-09-12T09:56:47.635Z,4.20
2022-09-12T09:59:25.753Z,4.03
2022-09-12T10:01:55.382Z,3.90
2022-09-12T10:04:24.773Z,3.70
2022-09-12T10:06:59.864Z,3.20
2022-09-12T10:09:29.151Z,3.75
2022-09-12T10:11:57.188Z,3.33
2022-09-12T10:14:40.523Z,3.33
2022-09-12T10:17:24.164Z,4.00
2022-09-12T10:20:10.421Z,3.50
2022-09-12T10:22:38.701Z,3.95
2022-09-12T10:25:12.323Z,3.13
2022-09-12T10:27:41.571Z,2.80
2022-09-12T10:30:18.207Z,2.92
2022-09-12T10:32:50.589Z,3.33
2022-09-12T10:35:23.065Z,3.85
2022-09-12T10:38:03.095Z,3.67
2022-09-12T10:40:34.516Z,3.90
2022-09-12T10:43:02.931Z,3.63
2022-09-12T10:45:32.233Z,3.45
2022-09-12T10:48:06.792Z,3.08
2022-09-12T10:50:41.275Z,3.07
2022-09-12T10:53:25.320Z,3.45
2022-09-12T10:56:00.726Z,3.30
2022-09-12T10:58:44.769Z,3.03
2022-09-12T11:01:29.800Z,3.35
2022-09-12T11:04:34.019Z,2.97
2022-09-12T11:07:27.794Z,2.88
2022-09-12T11:10:02.290Z,3.35
2022-09-12T11:12:31.809Z,2.47
2022-09-12T11:15:25.157Z,2.75
2022-09-12T11:17:56.123Z,2.23
2022-09-12T11:20:42.454Z,2.42
2022-09-12T11:23:36.680Z,2.58
2022-09-12T11:26:09.435Z,2.15
2022-09-12T11:28:47.412Z,2.33
2022-09-12T11:31:20.218Z,2.53
2022-09-12T11:33:56.636Z,2.67
2022-09-12T11:36:29.947Z,2.60
2022-09-12T11:39:39.538Z,2.20
2022-09-12T11:42:16.932Z,2.58
2022-09-12T11:44:49.660Z,2.53
2022-09-12T11:47:18.678Z,2.70
2022-09-12T11:49:51.528Z,3.08
2022-09-12T11:52:23.875Z,3.58
2022-09-12T11:55:05.187Z,2.78
2022-09-12T11:57:46.312Z,2.30
2022-09-12T12:00:20.714Z,3.17
2022-09-12T12:03:10.332Z,2.75
2022-09-12T12:05:59.165Z,2.90
2022-09-12T12:08:29.679Z,2.70
2022-09-12T12:10:59.650Z,2.37
2022-09-12T12:13:39.763Z,2.40
2022-09-12T12:16:31.487Z,2.50
2022-09-12T12:19:06.508Z,2.30
2022-09-12T12:21:48.287Z,2.70
2022-09-12T12:24:22.054Z,2.63
2022-09-12T12:26:57.937Z,2.92
2022-09-12T12:29:44.604Z,2.30
2022-09-12T12:32:11.523Z,2.47
2022-09-12T12:34:42.150Z,2.70
2022-09-12T12:37:24.168Z,2.60
2022-09-12T12:39:55.538Z,2.20
2022-09-12T12:42:34.520Z,2.58
2022-09-12T12:45:22.499Z,2.40
2022-09-12T12:47:53.397Z,2.17
2022-09-12T12:50:20.118Z,2.77
2022-09-12T12:52:59.339Z,2.60
2022-09-12T12:55:38.712Z,2.78
2022-09-12T12:58:07.205Z,2.15
2022-09-12T13:00:40.344Z,2.70
2022-09-12T13:03:07.148Z,2.60
2022-09-12T13:05:59.615Z,2.42
2022-09-12T13:08:29.995Z,2.28
2022-09-12T13:11:01.107Z,2.08
2022-09-12T13:13:42.701Z,2.60
2022-09-12T13:16:28.632Z,2.17
2022-09-12T13:18:57.279Z,2.60
2022-09-12T13:21:24.173Z,2.72
2022-09-12T13:24:15.960Z,2.80
2022-09-12T13:26:46.110Z,2.45
2022-09-12T13:29:24.090Z,2.43
2022-09-12T13:31:55.295Z,3.05
2022-09-12T13:34:31.960Z,2.92
2022-09-12T13:37:14.102Z,3.00
2022-09-12T13:39:52.368Z,2.42
2022-09-12T13:42:37.584Z,1.97
2022-09-12T13:45:19.817Z,2.25
2022-09-12T13:47:58.884Z,2.13
2022-09-12T13:50:32.147Z,2.30
2022-09-12T13:53:02.341Z,2.20
2022-09-12T13:55:32.545Z,2.30
2022-09-12T13:58:04.902Z,2.65
2022-09-12T14:00:35.166Z,2.50
2022-09-12T14:03:31.584Z,2.47
2022-09-12T14:05:58.382Z,2.63
2022-09-12T14:08:25.366Z,2.27
2022-09-12T14:10:52.184Z,2.28
2022-09-12T14:13:25.217Z,2.47
2022-09-12T14:15:54.895Z,2.42
2022-09-12T14:18:28.330Z,2.30
2022-09-12T14:21:00.654Z,2.57
2022-09-12T14:23:30.128Z,2.42
2022-09-12T14:26:00.151Z,3.13
2022-09-12T14:28:31.125Z,2.67
2022-09-12T14:31:04.947Z,2.55
2022-09-12T14:33:52.688Z,2.50
2022-09-12T14:36:27.352Z,2.55
2022-09-12T14:38:58.740Z,2.30
2022-09-12T14:41:46.558Z,2.25
2022-09-12T14:44:20.774Z,2.58
2022-09-12T14:46:48.679Z,2.37
2022-09-12T14:49:41.227Z,2.50
2022-09-12T14:52:23.305Z,2.85
2022-09-12T14:55:01.546Z,2.40
2022-09-12T14:57:28.175Z,2.63
2022-09-12T15:00:14.333Z,2.43
2022-09-12T15:02:44.862Z,2.25
2022-09-12T15:05:11.529Z,2.10
2022-09-12T15:07:39.611Z,2.20
2022-09-12T15:10:14.686Z,2.22
2022-09-12T15:12:41.382Z,2.10
2022-09-12T15:15:17.033Z,2.08
2022-09-12T15:17:43.908Z,2.10
2022-09-12T15:20:10.630Z,2.30
2022-09-12T15:22:38.540Z,2.72
2022-09-12T15:25:06.479Z,2.20
2022-09-12T15:27:33.510Z,2.42
2022-09-12T15:30:00.331Z,2.30
2022-09-12T15:32:30.254Z,2.10
2022-09-12T15:34:56.930Z,2.17
2022-09-12T15:37:24.295Z,2.20
2022-09-12T15:39:51.531Z,2.20
2022-09-12T15:42:22.636Z,2.33
2022-09-12T15:44:49.315Z,2.20
2022-09-12T15:47:16.112Z,2.53
2022-09-12T15:49:42.916Z,2.30
2022-09-12T15:52:15.439Z,2.40
2022-09-12T15:54:43.265Z,2.45
2022-09-12T15:57:09.994Z,2.10
2022-09-12T15:59:37.201Z,2.53
2022-09-12T16:02:03.985Z,2.50
2022-09-12T16:04:31.458Z,2.38
2022-09-12T16:06:58.713Z,2.80
2022-09-12T16:09:25.809Z,2.53
2022-09-12T16:11:52.730Z,2.50
2022-09-12T16:14:20.079Z,2.40
2022-09-12T16:16:59.417Z,2.30
2022-09-12T16:19:26.343Z,2.30
2022-09-12T16:21:53.669Z,2.60
2022-09-12T16:24:20.521Z,2.22
2022-09-12T16:26:48.042Z,2.27
2022-09-12T16:29:15.887Z,2.40
2022-09-12T16:31:43.725Z,2.20
2022-09-12T16:34:11.566Z,2.75
2022-09-12T16:36:38.367Z,2.78
2022-09-12T16:39:06.274Z,2.43
2022-09-12T16:41:33.127Z,2.97
2022-09-12T16:43:59.880Z,2.67
2022-09-12T16:46:30.663Z,2.80
2022-09-12T16:48:58.914Z,2.67
2022-09-12T16:51:30.500Z,2.63
2022-09-12T16:53:57.754Z,2.60
2022-09-12T16:56:24.782Z,2.55
2022-09-12T16:58:51.785Z,2.55
2022-09-12T17:01:24.381Z,2.70
2022-09-12T17:03:58.280Z,2.70
2022-09-12T17:06:26.226Z,2.35
2022-09-12T17:08:54.783Z,2.83
2022-09-12T17:11:24.420Z,2.60
2022-09-12T17:14:11.737Z,3.08
2022-09-12T17:16:47.964Z,3.00
2022-09-12T17:19:23.033Z,2.65
2022-09-12T17:21:50.187Z,2.50
2022-09-12T17:24:17.982Z,3.20
2022-09-12T17:26:45.667Z,2.90
2022-09-12T17:29:14.010Z,2.90
2022-09-12T17:31:41.564Z,2.47
2022-09-12T17:34:08.568Z,2.95
2022-09-12T17:36:35.543Z,2.75
2022-09-12T17:39:03.779Z,3.20
2022-09-12T17:41:31.967Z,2.90
2022-09-12T17:44:00.734Z,3.40
2022-09-12T17:46:36.689Z,2.72
2022-09-12T17:49:14.198Z,3.03
2022-09-12T17:51:41.489Z,3.08
2022-09-12T17:54:16.069Z,3.33
2022-09-12T17:56:44.376Z,3.00
2022-09-12T17:59:15.379Z,3.40
2022-09-12T18:02:00.707Z,3.72
2022-09-12T18:04:27.734Z,3.20
2022-09-12T18:06:54.730Z,3.30
2022-09-12T18:09:24.920Z,3.38
2022-09-12T18:11:52.359Z,3.47
2022-09-12T18:14:19.649Z,3.63
2022-09-12T18:16:47.465Z,3.55
2022-09-12T18:19:14.917Z,3.03
2022-09-12T18:21:41.805Z,3.40
2022-09-12T18:24:10.189Z,3.08
2022-09-12T18:26:37.360Z,3.70
2022-09-12T18:29:04.123Z,3.92
2022-09-12T18:31:31.438Z,4.10
2022-09-12T18:34:02.631Z,3.60
2022-09-12T18:36:30.367Z,3.17
2022-09-12T18:38:58.568Z,3.42
2022-09-12T18:41:26.220Z,3.33
2022-09-12T18:44:00.706Z,3.30
2022-09-12T18:46:29.448Z,3.47
2022-09-12T18:48:57.979Z,3.72
2022-09-12T18:51:31.374Z,3.35
2022-09-12T18:54:00.612Z,2.97
2022-09-12T18:56:32.258Z,3.30
2022-09-12T18:58:59.844Z,3.20
2022-09-12T19:01:29.227Z,3.22
2022-09-12T19:03:56.463Z,3.30
2022-09-12T19:06:28.681Z,3.50
2022-09-12T19:08:57.078Z,3.83
2022-09-12T19:11:25.200Z,3.20
2022-09-12T19:13:53.784Z,3.10
2022-09-12T19:16:26.801Z,3.30
2022-09-12T19:18:55.651Z,3.30
2022-09-12T19:21:28.241Z,3.10
2022-09-12T19:23:59.948Z,3.80
2022-09-12T19:26:27.025Z,3.75
2022-09-12T19:28:54.739Z,3.67
2022-09-12T19:31:23.370Z,3.70
2022-09-12T19:33:52.097Z,3.57
2022-09-12T19:36:44.418Z,3.40
2022-09-12T19:39:08.491Z,3.25
2022-09-12T19:41:35.926Z,3.28
2022-09-12T19:44:03.794Z,3.75
2022-09-12T19:46:30.514Z,3.80
2022-09-12T19:48:57.342Z,3.33
2022-09-12T19:51:24.395Z,3.28
2022-09-12T19:53:51.851Z,3.17
2022-09-12T19:56:18.545Z,3.67
2022-09-12T19:58:49.005Z,3.40
2022-09-12T20:01:28.314Z,3.40
2022-09-12T20:03:56.620Z,3.00
2022-09-12T20:06:23.357Z,3.40
2022-09-12T20:08:50.090Z,3.00
2022-09-12T20:11:19.405Z,3.30
2022-09-12T20:13:46.662Z,3.20
2022-09-12T20:16:33.561Z,3.00
2022-09-12T20:19:08.426Z,3.28
2022-09-12T20:21:36.270Z,3.30
2022-09-12T20:24:12.322Z,3.20
2022-09-12T20:26:39.828Z,3.22
2022-09-12T20:29:07.120Z,3.38
2022-09-12T20:31:35.177Z,3.55
2022-09-12T20:34:02.654Z,3.50
2022-09-12T20:36:29.326Z,3.10
2022-09-12T20:38:59.885Z,3.22
2022-09-12T20:41:32.236Z,3.90
2022-09-12T20:43:59.092Z,3.70
2022-09-12T20:46:27.350Z,3.88
2022-09-12T20:48:54.680Z,3.20
2022-09-12T20:51:22.298Z,3.85
2022-09-12T20:53:53.485Z,3.70
2022-09-12T20:56:21.074Z,3.83
2022-09-12T20:58:47.773Z,4.22
2022-09-12T21:01:16.008Z,4.27
2022-09-12T21:03:44.730Z,3.97
2022-09-12T21:06:14.575Z,4.63
2022-09-12T21:08:41.301Z,3.67
2022-09-12T21:11:08.086Z,5.13
2022-09-12T21:13:35.269Z,4.30
2022-09-12T21:16:05.103Z,4.20
2022-09-12T21:18:32.920Z,3.85
2022-09-12T21:21:00.203Z,3.83
2022-09-12T21:23:27.931Z,4.00
2022-09-12T21:25:54.847Z,3.57
2022-09-12T21:28:22.170Z,3.40
2022-09-12T21:30:49.870Z,3.58
2022-09-12T21:33:17.663Z,3.55
2022-09-12T21:35:44.560Z,3.78
2022-09-12T21:38:11.658Z,3.33
2022-09-12T21:40:38.303Z,3.83
2022-09-12T21:43:07.213Z,3.58
2022-09-12T21:45:37.219Z,3.63
2022-09-12T21:48:04.724Z,3.60
2022-09-12T21:50:31.401Z,3.47
2022-09-12T21:52:58.180Z,3.70
2022-09-12T21:55:27.213Z,3.70
2022-09-12T21:57:55.248Z,3.80
2022-09-12T22:00:22.863Z,3.50
2022-09-12T22:02:49.927Z,3.50
2022-09-12T22:05:17.478Z,3.63
2022-09-12T22:07:44.677Z,3.72
2022-09-12T22:10:11.418Z,3.70
2022-09-12T22:12:40.764Z,4.18
2022-09-12T22:15:36.247Z,3.70
2022-09-12T22:17:56.959Z,3.70
2022-09-12T22:20:23.638Z,3.67
2022-09-12T22:23:08.898Z,3.92
2022-09-12T22:25:35.791Z,3.65
2022-09-12T22:28:02.511Z,3.80
2022-09-12T22:30:29.222Z,3.10
2022-09-12T22:32:55.935Z,3.97
2022-09-12T22:35:22.765Z,3.88
2022-09-12T22:37:49.677Z,4.05
2022-09-12T22:40:16.857Z,3.70
2022-09-12T22:42:43.596Z,4.18
2022-09-12T22:45:10.576Z,4.30
2022-09-12T22:47:37.407Z,3.97
2022-09-12T22:50:04.516Z,4.70
2022-09-12T22:52:31.282Z,4.50
2022-09-12T22:54:59.095Z,3.92
2022-09-12T22:57:25.875Z,4.53
2022-09-12T22:59:52.587Z,3.85
2022-09-12T23:02:19.291Z,4.38
2022-09-12T23:04:47.001Z,3.80
2022-09-12T23:07:13.731Z,4.25
2022-09-12T23:09:40.470Z,4.30
2022-09-12T23:12:07.300Z,4.07
2022-09-12T23:14:34.236Z,3.67
2022-09-12T23:17:02.054Z,3.80
2022-09-12T23:19:28.738Z,4.30
2022-09-12T23:21:55.582Z,4.07
2022-09-12T23:24:22.445Z,3.42
2022-09-12T23:26:49.394Z,3.70
2022-09-12T23:29:16.465Z,3.80
2022-09-12T23:31:43.878Z,4.03
2022-09-12T23:34:10.627Z,4.18
2022-09-12T23:36:37.395Z,3.75
2022-09-12T23:39:04.268Z,3.90
2022-09-12T23:41:31.627Z,3.80
2022-09-12T23:43:58.705Z,3.45
2022-09-12T23:46:25.523Z,4.25
2022-09-12T23:48:53.478Z,4.35
2022-09-12T23:51:21.886Z,4.03
2022-09-12T23:53:48.925Z,3.43
2022-09-12T23:56:15.929Z,3.90
2022-09-12T23:58:42.801Z,3.70
